Flight Track Log - Related Links

Times and Time Zones

All times are in EDT time to prevent confusion due to time zone crossing. See the CTL22 flight status page for this flight to view local times or setup timezone preferences in your user account.

Time Position Orientation Groundspeed Altitude Reporting Facility
EDT Latitude Longitude Course Direction KTS MPH feet Rate Location/Type
Tue 08:29:13 PM 42.1747 -85.4281 110° East 150 173 3,900  Level Chicago Center
Tue 08:30:14 PM 42.1606 -85.3600 106° East 155 178 4,400 390 Climbing Chicago Center
Tue 08:31:16 PM 42.1508 -85.3003 102° East 160 184 4,700 339 Climbing Chicago Center
Tue 08:32:00 PM 42.1666 -85.1491 103° East  Level Estimated
Tue 08:32:18 PM 42.1317 -85.2425 114° Southeast 167 192 5,100  Level Chicago Center
Tue 08:33:00 PM 42.1551 -85.0821 103° East  Level Estimated
Tue 08:33:20 PM 42.1147 -85.1825 111° Southeast 170 196 5,500  Level Chicago Center
Tue 08:34:22 PM 42.0972 -85.1225 111° Southeast 171 197 6,000 435 Climbing Chicago Center
Tue 08:35:24 PM 42.0792 -85.0608 112° Southeast 174 200 6,400 339 Climbing Chicago Center
Tue 08:36:26 PM 42.0569 -85.0006 116° Southeast 178 205 6,700 290 Climbing Chicago Center
Tue 08:37:28 PM 42.0283 -84.9283 118° Southeast 181 208 7,000 145 Climbing Chicago Center
Tue 08:38:30 PM 42.0078 -84.8597 112° Southeast 192 221 7,000 -97 Level Chicago Center
Tue 08:39:32 PM 41.9903 -84.7908 109° East 194 223 6,800 -48 Descending Chicago Center
Tue 08:40:34 PM 41.9731 -84.7181 108° East 201 231 6,900 97 Climbing Chicago Center
Tue 08:41:36 PM 41.9522 -84.6497 112° Southeast 198 228 7,000 48 Climbing Chicago Center
Tue 08:42:38 PM 41.9306 -84.5786 112° Southeast 202 232 7,000 -48 Level Chicago Center
Tue 08:43:40 PM 41.9061 -84.5103 116° Southeast 202 232 6,900 -48 Descending Chicago Center
Tue 08:44:42 PM 41.8714 -84.4325 121° Southeast 202 232 6,900  Level Chicago Center
Tue 08:45:44 PM 41.8422 -84.3644 120° Southeast 207 238 6,900 48 Level Chicago Center
Tue 08:46:46 PM 41.8178 -84.2956 115° Southeast 207 238 7,000 48 Climbing Chicago Center
Tue 08:47:48 PM 41.7903 -84.2297 119° Southeast 204 235 7,000  Level Chicago Center
Tue 08:48:50 PM 41.7628 -84.1611 118° Southeast 206 237 7,000  Level Chicago Center
Tue 08:49:52 PM 41.7339 -84.0978 121° Southeast 204 235 7,000  Level Chicago Center

Login

Don't have an account? Register now (free) for customized features, flight alerts, and more!